Time;durP1;ratioP1;P1;durP2;ratioP2;P2;SDS_P1;SDS_P2;PMS_P1;PMS_P2;Temp;Humidity;BMP_temperature;BMP_pressure;BME280_temperature;BME280_humidity;BME280_pressure;Samples;Min_cycle;Max_cycle;Signal;HPM_P1;HPM_P2
2021/01/10 00:00:34;;;;;;;44.77;25.40;;;;;;;1.16;84.99;99981.66;1775351;80;21766;-54
2021/01/10 00:03:02;;;;;;;43.15;26.42;;;;;;;1.17;85.01;99980.76;1779487;79;21696;-54
2021/01/10 00:09:10;;;;;;;44.18;26.20;;;;;;;1.23;84.90;99986.92;1745778;79;22804;-55
2021/01/10 00:11:45;;;;;;;42.55;26.07;;;;;;;1.18;84.87;99994.50;1686390;83;21000;-54
2021/01/10 00:14:13;;;;;;;48.95;27.05;;;;;;;1.19;84.94;99997.59;1715743;83;21352;-55
2021/01/10 00:16:41;;;;;;;47.98;27.90;;;;;;;1.21;84.90;99993.13;1715756;82;21038;-53
2021/01/10 00:19:09;;;;;;;45.10;26.35;;;;;;;1.22;84.84;100003.73;1716676;82;21009;-55
2021/01/10 00:21:39;;;;;;;46.05;26.33;;;;;;;1.23;84.69;100004.20;1716379;82;21058;-54
2021/01/10 00:24:07;;;;;;;47.53;26.37;;;;;;;1.22;84.48;100002.85;1716244;83;21223;-50
2021/01/10 00:26:35;;;;;;;44.42;26.77;;;;;;;1.24;84.45;100005.07;1716428;83;21597;-49
2021/01/10 00:29:06;;;;;;;45.65;27.52;;;;;;;1.25;84.42;100010.36;1716289;83;21598;-49
2021/01/10 00:31:35;;;;;;;44.98;25.48;;;;;;;1.24;84.42;100003.74;1716286;82;21174;-49
2021/01/10 00:34:03;;;;;;;46.88;26.57;;;;;;;1.25;84.31;100014.34;1715866;83;21144;-49
2021/01/10 00:36:34;;;;;;;43.63;24.20;;;;;;;1.26;84.32;100004.59;1716552;82;21006;-50
2021/01/10 00:39:05;;;;;;;41.83;25.50;;;;;;;1.28;84.08;100010.80;1716159;82;21276;-49
2021/01/10 00:41:38;;;;;;;43.58;24.72;;;;;;;1.29;84.00;100012.55;1716398;83;21207;-49
2021/01/10 00:44:06;;;;;;;43.92;25.10;;;;;;;1.27;83.69;100001.05;1715779;83;21209;-48
2021/01/10 00:46:34;;;;;;;49.55;26.48;;;;;;;1.25;83.70;99994.88;1715153;83;21163;-50
2021/01/10 00:49:03;;;;;;;41.73;24.50;;;;;;;1.24;83.61;99995.77;1715880;83;21125;-50
2021/01/10 00:51:31;;;;;;;42.60;24.60;;;;;;;1.26;83.68;100001.94;1688469;83;22098;-49
2021/01/10 00:54:00;;;;;;;44.08;25.80;;;;;;;1.26;83.70;100007.25;1688209;82;21173;-48
2021/01/10 00:56:28;;;;;;;46.48;27.45;;;;;;;1.24;83.70;99995.77;1671510;83;21649;-47
2021/01/10 00:58:56;;;;;;;41.55;25.08;;;;;;;1.26;83.71;100000.61;1715688;83;21156;-48
2021/01/10 01:01:24;;;;;;;47.10;25.17;;;;;;;1.28;83.65;100005.48;1716202;82;21002;-48
2021/01/10 01:03:52;;;;;;;48.35;27.02;;;;;;;1.27;83.43;100005.91;1716391;83;22073;-48
2021/01/10 01:06:21;;;;;;;43.45;24.12;;;;;;;1.26;83.52;100010.79;1716020;82;21156;-48
2021/01/10 01:08:49;;;;;;;43.40;26.02;;;;;;;1.26;83.58;100010.79;1707300;83;21101;-50
2021/01/10 01:11:17;;;;;;;45.00;26.75;;;;;;;1.28;83.58;100016.98;1663795;84;22045;-49
2021/01/10 01:13:45;;;;;;;47.30;25.23;;;;;;;1.29;83.51;100004.59;1648044;84;21140;-48
2021/01/10 01:16:13;;;;;;;43.28;26.27;;;;;;;1.29;83.43;100012.55;1703227;84;21398;-49
2021/01/10 01:18:42;;;;;;;50.08;25.95;;;;;;;1.29;83.42;100004.59;1704138;84;21399;-49
2021/01/10 01:21:19;;;;;;;42.83;25.02;;;;;;;1.30;83.46;100006.34;1703304;84;21034;-49
2021/01/10 01:23:47;;;;;;;47.88;26.02;;;;;;;1.29;83.49;100007.24;1703104;82;21034;-48
2021/01/10 01:26:19;;;;;;;45.15;26.02;;;;;;;1.28;83.39;100008.14;1669151;85;21156;-48
2021/01/10 01:28:47;;;;;;;;;;;;;;;1.27;83.45;100003.70;1666597;86;21220;-48
2021/01/10 01:31:17;;;;;;;49.93;27.52;;;;;;;1.28;83.51;100002.83;1659219;84;20279;-48
2021/01/10 01:33:47;;;;;;;46.70;27.35;;;;;;;1.28;83.53;100001.05;1663922;84;26784;-48
2021/01/10 01:36:23;;;;;;;44.65;26.87;;;;;;;1.25;83.54;100000.19;1664263;84;21197;-47
2021/01/10 01:38:54;;;;;;;47.25;27.55;;;;;;;1.26;83.57;99994.84;1663888;86;21201;-47
2021/01/10 01:41:25;;;;;;;44.98;26.35;;;;;;;1.29;83.66;99997.49;1663760;84;21410;-48
2021/01/10 01:44:01;;;;;;;49.03;28.38;;;;;;;1.36;83.58;100002.30;1814055;76;22782;-47
2021/01/10 01:46:31;;;;;;;50.28;26.97;;;;;;;1.30;83.41;100009.87;1813173;77;21081;-47
2021/01/10 01:49:04;;;;;;;38.85;22.95;;;;;;;1.30;83.45;100009.00;1813087;77;22184;-48
2021/01/10 01:51:40;;;;;;;50.63;28.12;;;;;;;1.34;83.53;100008.53;1852807;75;22710;-48
2021/01/10 01:54:09;;;;;;;46.33;26.25;;;;;;;1.29;83.56;100008.57;1823697;77;20961;-48
2021/01/10 01:56:37;;;;;;;50.67;28.47;;;;;;;1.30;83.66;100011.20;1828226;77;21373;-49
2021/01/10 02:01:43;;;;;;;49.65;28.00;;;;;;;1.38;83.51;100012.45;1804369;78;22742;-47
2021/01/10 02:04:36;;;;;;;47.98;26.70;;;;;;;1.31;83.40;100011.63;1777244;79;21436;-48
2021/01/10 02:07:10;;;;;;;47.62;26.52;;;;;;;1.30;83.47;100009.87;1746644;80;21132;-48
2021/01/10 02:09:46;;;;;;;48.87;27.62;;;;;;;1.29;83.43;100019.20;1747172;80;21590;-47
2021/01/10 02:12:14;;;;;;;45.12;25.12;;;;;;;1.27;83.46;100010.34;1745433;80;20978;-48
2021/01/10 02:14:56;;;;;;;46.37;26.73;;;;;;;1.27;83.38;100014.33;1746179;80;20990;-49
2021/01/10 02:17:24;;;;;;;52.08;28.40;;;;;;;1.25;83.39;100017.00;1746482;80;20974;-50
2021/01/10 02:20:07;;;;;;;46.95;26.40;;;;;;;1.24;83.43;100023.66;1748956;79;21360;-49
2021/01/10 02:22:54;;;;;;;47.15;27.10;;;;;;;1.24;83.44;100023.66;1745870;79;21604;-48
2021/01/10 02:25:22;;;;;;;50.90;29.25;;;;;;;1.26;83.50;100021.86;1746308;79;21551;-49
2021/01/10 02:27:50;;;;;;;49.70;28.15;;;;;;;1.27;83.54;100020.97;1745189;79;21045;-48
2021/01/10 02:30:19;;;;;;;51.55;28.47;;;;;;;1.29;83.52;100023.19;1745707;79;21128;-48
2021/01/10 02:32:50;;;;;;;49.58;28.10;;;;;;;1.28;83.51;100024.09;1746187;80;21720;-49
2021/01/10 02:35:19;;;;;;;43.85;25.02;;;;;;;1.26;83.59;100020.54;1739472;80;21680;-47
2021/01/10 02:38:21;;;;;;;50.38;27.25;;;;;;;1.27;83.66;100016.98;1744871;79;21204;-47
2021/01/10 02:40:53;;;;;;;;;;;;;;;1.26;83.68;100025.85;1750424;79;21630;-48
2021/01/10 02:43:22;;;;;;;47.15;27.58;;;;;;;1.22;83.75;100016.14;1746781;79;20646;-47
2021/01/10 02:45:50;;;;;;;48.92;26.27;;;;;;;1.21;83.87;100009.06;1745463;79;22034;-47
2021/01/10 02:48:19;;;;;;;48.90;28.98;;;;;;;1.21;83.95;100021.02;1745987;79;21460;-48
2021/01/10 02:50:49;;;;;;;52.80;28.27;;;;;;;1.21;84.04;100023.23;1740794;79;21140;-47
2021/01/10 02:53:16;;;;;;;51.35;28.25;;;;;;;1.20;84.07;100017.94;1745446;79;21151;-49
2021/01/10 02:55:44;;;;;;;53.02;28.62;;;;;;;1.18;84.16;100017.08;1745411;79;21100;-47
2021/01/10 02:58:15;;;;;;;45.52;26.62;;;;;;;1.18;84.23;100014.42;1747753;79;21408;-48
2021/01/10 03:00:43;;;;;;;48.68;28.02;;;;;;;1.18;84.29;100011.77;1748428;80;21175;-48
2021/01/10 03:03:11;;;;;;;51.88;29.37;;;;;;;1.19;84.36;100011.75;1752101;80;21604;-47
2021/01/10 03:05:39;;;;;;;45.80;27.52;;;;;;;1.21;84.41;100013.05;1755102;80;21016;-48
2021/01/10 03:08:07;;;;;;;47.75;27.77;;;;;;;1.24;84.44;100011.71;1747715;80;21273;-49
2021/01/10 03:10:35;;;;;;;48.87;29.35;;;;;;;1.22;84.39;100010.82;1747631;80;21415;-47
2021/01/10 03:13:04;;;;;;;51.48;26.93;;;;;;;1.23;84.44;100020.58;1751442;80;21175;-47
2021/01/10 03:15:33;;;;;;;51.75;28.92;;;;;;;1.21;84.41;100017.03;1746993;80;21564;-48
2021/01/10 03:18:18;;;;;;;52.98;29.18;;;;;;;1.24;84.50;100019.69;1750985;79;21446;-48
2021/01/10 03:20:48;;;;;;;51.63;28.15;;;;;;;1.25;84.42;100012.14;1750366;80;21001;-47
2021/01/10 03:23:17;;;;;;;54.05;27.77;;;;;;;1.25;84.40;100012.14;1761394;80;21400;-48
2021/01/10 03:25:45;;;;;;;57.30;29.40;;;;;;;1.24;84.44;100012.59;1750044;80;21179;-48
2021/01/10 03:28:13;;;;;;;53.65;27.42;;;;;;;1.26;84.51;100016.55;1750514;80;21609;-46
2021/01/10 03:30:41;;;;;;;54.38;30.35;;;;;;;1.27;84.51;100011.67;1750186;79;21564;-49
2021/01/10 03:33:09;;;;;;;53.35;29.12;;;;;;;1.26;84.56;100024.08;1751032;80;21033;-47
2021/01/10 03:35:37;;;;;;;51.20;27.98;;;;;;;1.26;84.66;100015.22;1751629;80;21337;-49
2021/01/10 03:38:05;;;;;;;52.65;28.47;;;;;;;1.26;84.70;100021.42;1752530;80;21106;-48
2021/01/10 03:40:33;;;;;;;51.75;30.77;;;;;;;1.29;84.73;100020.53;1750794;79;21538;-48
2021/01/10 03:43:01;;;;;;;53.83;29.18;;;;;;;1.30;84.70;100022.28;1758756;79;21120;-47
2021/01/10 03:45:29;;;;;;;57.65;30.15;;;;;;;1.30;84.74;100019.17;1756115;80;21041;-48
2021/01/10 03:47:57;;;;;;;54.75;29.50;;;;;;;1.32;84.76;100017.83;1755274;80;21374;-47
2021/01/10 03:50:25;;;;;;;54.53;29.70;;;;;;;1.33;84.79;100018.25;1750887;79;21025;-47
2021/01/10 03:52:53;;;;;;;58.28;29.63;;;;;;;1.34;84.84;100014.73;1754490;79;21064;-47
2021/01/10 03:55:21;;;;;;;53.63;29.30;;;;;;;1.35;84.84;100013.83;1750655;79;21124;-46
2021/01/10 03:57:50;;;;;;;50.88;28.42;;;;;;;1.35;84.84;100016.94;1751276;80;21187;-48
2021/01/10 04:00:18;;;;;;;50.83;27.15;;;;;;;1.31;84.95;100018.72;1755573;80;21369;-48
2021/01/10 04:02:47;;;;;;;51.50;28.80;;;;;;;1.32;85.05;100021.81;1751028;79;21033;-47
2021/01/10 04:05:15;;;;;;;54.27;31.10;;;;;;;1.31;85.12;100024.03;1754394;79;21044;-48
2021/01/10 04:07:43;;;;;;;62.90;31.48;;;;;;;1.29;85.19;100028.50;1750174;80;21041;-46
2021/01/10 04:10:12;;;;;;;54.83;29.72;;;;;;;1.30;85.24;100028.92;1750910;79;21174;-47
2021/01/10 04:12:40;;;;;;;52.55;30.85;;;;;;;1.33;85.28;100028.88;1751240;80;21379;-47
2021/01/10 04:15:09;;;;;;;54.83;29.95;;;;;;;1.33;85.26;100030.20;1751645;79;21013;-51
2021/01/10 04:17:37;;;;;;;54.67;29.40;;;;;;;1.33;85.14;100032.87;1755265;80;21112;-47
2021/01/10 04:20:05;;;;;;;53.48;28.92;;;;;;;1.31;85.18;100035.99;1756704;80;21163;-48
2021/01/10 04:22:34;;;;;;;51.55;29.35;;;;;;;1.33;85.25;100032.87;1753799;79;21556;-47
2021/01/10 04:25:03;;;;;;;46.13;26.82;;;;;;;1.35;85.19;100035.53;1750867;79;21200;-50
2021/01/10 04:27:31;;;;;;;52.93;29.37;;;;;;;1.32;85.25;100036.42;1757638;80;21017;-49
2021/01/10 04:30:03;;;;;;;50.50;28.15;;;;;;;1.33;85.27;100038.18;1753568;80;21140;-47
2021/01/10 04:32:29;;;;;;;52.23;29.75;;;;;;;1.35;85.23;100040.84;1752583;80;21143;-48
2021/01/10 04:34:58;;;;;;;53.80;29.85;;;;;;;1.36;85.12;100047.47;1750453;80;21041;-48
2021/01/10 04:37:25;;;;;;;55.10;28.30;;;;;;;1.35;85.12;100044.38;1712546;82;21412;-48
2021/01/10 04:39:53;;;;;;;48.42;27.55;;;;;;;1.36;85.04;100051.45;1692163;81;21602;-49
2021/01/10 04:42:22;;;;;;;49.03;27.22;;;;;;;1.35;85.07;100052.36;1709693;82;21484;-48
2021/01/10 04:44:50;;;;;;;48.98;27.22;;;;;;;1.35;85.11;100057.67;1692937;81;21608;-48
2021/01/10 04:47:18;;;;;;;47.20;27.22;;;;;;;1.35;85.18;100057.67;1675118;84;21701;-47
2021/01/10 04:49:47;;;;;;;49.40;28.80;;;;;;;1.36;85.15;100055.89;1689802;82;22347;-48
2021/01/10 04:52:16;;;;;;;48.45;26.20;;;;;;;1.36;85.12;100060.75;1694368;83;21690;-48
2021/01/10 04:54:47;;;;;;;49.18;28.12;;;;;;;1.34;85.13;100063.87;1656602;83;21592;-48
2021/01/10 04:57:19;;;;;;;52.08;26.97;;;;;;;1.35;85.16;100070.95;1692798;81;21707;-47
2021/01/10 04:59:47;;;;;;;56.50;27.07;;;;;;;1.34;85.23;100069.19;1713654;82;21112;-48
2021/01/10 05:02:15;;;;;;;47.60;27.07;;;;;;;1.34;85.36;100072.30;1700765;83;21554;-53
2021/01/10 05:04:45;;;;;;;54.13;26.12;;;;;;;1.34;85.42;100073.63;1701410;83;21184;-54
2021/01/10 05:07:21;;;;;;;48.68;27.13;;;;;;;1.37;85.43;100077.13;1827498;75;22861;-49
2021/01/10 05:09:50;;;;;;;51.20;24.63;;;;;;;1.29;85.48;100084.28;1784433;79;20966;-48
2021/01/10 05:12:20;;;;;;;49.67;25.88;;;;;;;1.30;85.49;100083.39;1759406;78;22014;-49
2021/01/10 05:14:48;;;;;;;51.30;29.00;;;;;;;1.33;85.46;100080.69;1755985;79;20978;-49
2021/01/10 05:17:20;;;;;;;51.98;27.93;;;;;;;1.36;85.48;100087.77;1730202;79;21356;-49
2021/01/10 05:19:49;;;;;;;53.23;27.20;;;;;;;1.37;85.41;100086.88;1752344;79;21632;-49
2021/01/10 05:22:21;;;;;;;53.58;26.45;;;;;;;1.37;85.43;100087.75;1747911;79;21052;-49
2021/01/10 05:24:48;;;;;;;47.73;25.40;;;;;;;1.36;85.50;100091.30;1709246;79;22076;-50
2021/01/10 05:27:16;;;;;;;50.48;28.15;;;;;;;1.36;85.45;100091.30;1750332;78;21084;-51
2021/01/10 05:29:56;;;;;;;;;;;;;;;;;;;;;
2021/01/10 05:32:22;;;;;;;49.27;28.07;;;;;;;1.45;85.34;100093.91;1819196;76;22683;-49
2021/01/10 05:35:01;;;;;;;48.83;26.07;;;;;;;1.38;85.25;100102.80;1721800;80;20953;-49
2021/01/10 05:37:30;;;;;;;50.23;28.15;;;;;;;1.37;85.31;100097.50;1765576;78;21210;-54
2021/01/10 05:39:59;;;;;;;53.02;27.80;;;;;;;1.37;85.39;100100.16;1763394;80;21009;-48
2021/01/10 05:42:30;;;;;;;49.80;28.05;;;;;;;1.38;85.43;100102.80;1762001;80;21603;-48
2021/01/10 05:45:01;;;;;;;51.83;28.95;;;;;;;1.37;85.47;100101.04;1761166;78;20978;-47
2021/01/10 05:47:40;;;;;;;50.23;27.82;;;;;;;1.44;85.51;100105.85;1863957;76;22631;-50
2021/01/10 05:50:19;;;;;;;51.45;26.23;;;;;;;1.42;85.50;100109.86;1849132;74;21962;-48
2021/01/10 05:52:47;;;;;;;49.33;28.40;;;;;;;1.36;85.52;100109.03;1767339;77;21068;-49
2021/01/10 05:55:16;;;;;;;52.62;27.95;;;;;;;1.35;85.55;100116.13;1800057;77;21336;-50
2021/01/10 05:57:44;;;;;;;53.80;27.70;;;;;;;1.34;85.58;100111.70;1800536;77;20950;-54
2021/01/10 06:00:13;;;;;;;49.77;26.60;;;;;;;1.33;85.60;100116.56;1773956;77;20982;-58
2021/01/10 06:02:41;;;;;;;53.75;28.50;;;;;;;1.34;85.68;100122.33;1802814;77;20945;-57
2021/01/10 06:05:16;;;;;;;47.62;26.62;;;;;;;1.35;85.75;100120.11;1799991;77;20922;-57
2021/01/10 06:07:45;;;;;;;49.63;26.65;;;;;;;1.35;85.75;100120.55;1799873;77;21383;-56
2021/01/10 06:10:28;;;;;;;51.10;28.40;;;;;;;1.35;85.75;100125.88;1798627;77;21242;-55
2021/01/10 06:13:05;;;;;;;49.00;27.58;;;;;;;1.34;85.75;100130.30;1802211;77;20985;-56
2021/01/10 06:15:34;;;;;;;52.58;25.95;;;;;;;1.34;85.78;100130.30;1798985;77;20985;-55
2021/01/10 06:18:04;;;;;;;48.38;27.62;;;;;;;1.36;85.81;100132.94;1798266;77;21565;-56
2021/01/10 06:20:33;;;;;;;53.35;27.17;;;;;;;1.37;85.77;100138.23;1804610;77;21163;-56
2021/01/10 06:23:06;;;;;;;52.40;27.73;;;;;;;1.36;85.79;100133.82;1798531;77;21573;-56
2021/01/10 06:25:37;;;;;;;48.10;26.40;;;;;;;1.37;85.79;100136.91;1799692;77;21079;-54
2021/01/10 06:28:14;;;;;;;52.35;27.93;;;;;;;1.36;85.78;100144.45;1795497;77;21108;-57
2021/01/10 06:30:53;;;;;;;48.95;26.45;;;;;;;1.37;85.73;100145.33;1798080;77;21116;-57
2021/01/10 06:33:28;;;;;;;48.78;26.70;;;;;;;1.38;85.67;100149.30;1798872;77;21388;-56
2021/01/10 06:36:07;;;;;;;46.77;26.35;;;;;;;1.40;85.68;100143.55;1795561;77;21044;-56
2021/01/10 06:38:37;;;;;;;50.67;26.17;;;;;;;1.41;85.60;100153.27;1798174;77;21172;-58
2021/01/10 06:41:37;;;;;;;49.45;28.40;;;;;;;1.41;85.61;100153.72;1797351;77;20997;-57
2021/01/10 06:44:06;;;;;;;48.08;26.68;;;;;;;1.39;85.58;100157.73;1797960;77;21741;-58
2021/01/10 06:46:34;;;;;;;47.95;27.27;;;;;;;1.38;85.67;100163.03;1798087;77;21437;-56
2021/01/10 06:49:03;;;;;;;47.60;27.65;;;;;;;1.40;85.71;100170.12;1797743;77;20997;-49
2021/01/10 06:51:31;;;;;;;48.42;26.68;;;;;;;1.41;85.55;100169.22;1799701;77;21570;-50
2021/01/10 06:54:05;;;;;;;49.30;27.73;;;;;;;1.42;85.53;100173.63;1799064;77;21643;-50
2021/01/10 06:56:33;;;;;;;51.00;27.00;;;;;;;1.42;85.48;100178.95;1796925;77;21745;-49
2021/01/10 06:59:11;;;;;;;46.30;26.10;;;;;;;1.43;85.46;100182.48;1797657;77;22275;-50
2021/01/10 07:01:56;;;;;;;47.75;26.50;;;;;;;1.43;85.49;100182.03;1796771;77;21127;-57
2021/01/10 07:04:38;;;;;;;52.20;28.85;;;;;;;1.43;85.45;100188.67;1797260;77;21135;-57
2021/01/10 07:07:06;;;;;;;50.65;25.92;;;;;;;1.42;85.45;100180.28;1795781;77;21131;-57
2021/01/10 07:09:53;;;;;;;47.55;26.85;;;;;;;1.44;85.41;100192.22;1797216;77;21113;-57
2021/01/10 07:12:29;;;;;;;45.33;24.92;;;;;;;1.48;85.29;100185.55;1819753;76;21866;-57
2021/01/10 07:15:21;;;;;;;49.23;26.70;;;;;;;1.45;85.06;100192.68;1791851;77;21663;-56
2021/01/10 07:18:05;;;;;;;44.58;24.45;;;;;;;1.50;84.78;100195.75;1815831;76;22552;-57
2021/01/10 07:20:39;;;;;;;49.13;25.25;;;;;;;1.43;84.54;100201.97;1775297;79;21025;-58
2021/01/10 07:23:28;;;;;;;43.83;23.87;;;;;;;1.42;84.57;100197.55;1758313;79;21172;-54
2021/01/10 07:25:57;;;;;;;43.02;24.52;;;;;;;1.44;84.51;100202.84;1758023;78;21013;-48
2021/01/10 07:28:33;;;;;;;47.00;25.35;;;;;;;1.43;84.28;100208.61;1757462;79;20977;-48
2021/01/10 07:31:12;;;;;;;41.00;22.50;;;;;;;1.46;84.10;100215.25;1760252;78;20973;-49
2021/01/10 07:33:40;;;;;;;42.98;23.42;;;;;;;1.45;83.80;100208.17;1763682;79;21668;-49
2021/01/10 07:36:09;;;;;;;43.08;23.70;;;;;;;1.46;83.84;100215.25;1761854;78;21374;-49
2021/01/10 07:38:37;;;;;;;44.55;25.88;;;;;;;1.47;83.79;100216.13;1760686;79;20974;-52
2021/01/10 07:41:24;;;;;;;46.63;25.43;;;;;;;1.48;83.77;100218.77;1763598;78;21698;-50
2021/01/10 07:44:00;;;;;;;45.40;23.87;;;;;;;1.54;83.87;100209.42;1811806;78;23286;-50
2021/01/10 07:46:57;;;;;;;44.95;24.45;;;;;;;1.49;83.77;100222.30;1752910;79;20939;-56
2021/01/10 07:49:32;;;;;;;45.45;23.77;;;;;;;1.46;83.89;100213.92;1750153;80;22253;-50
2021/01/10 07:52:00;;;;;;;38.98;23.70;;;;;;;1.46;83.79;100217.91;1750035;79;20962;-50
2021/01/10 07:54:54;;;;;;;50.38;25.85;;;;;;;1.45;83.93;100216.15;1750657;80;21601;-50
2021/01/10 07:57:36;;;;;;;48.50;26.93;;;;;;;1.49;84.02;100223.22;1751287;80;21581;-51
2021/01/10 08:00:21;;;;;;;47.58;26.10;;;;;;;1.52;84.03;100220.52;1746526;79;20982;-48
2021/01/10 08:03:01;;;;;;;50.00;24.57;;;;;;;1.56;84.04;100230.70;1746817;80;21404;-53
2021/01/10 08:05:41;;;;;;;46.95;24.98;;;;;;;1.57;83.98;100223.16;1751262;80;21010;-54
2021/01/10 08:08:17;;;;;;;45.20;23.80;;;;;;;1.58;84.01;100217.82;1746221;79;21133;-53
2021/01/10 08:10:55;;;;;;;45.38;23.65;;;;;;;1.58;83.87;100223.14;1753345;79;21195;-54
2021/01/10 08:13:42;;;;;;;53.42;27.27;;;;;;;1.62;83.75;100223.13;1751560;79;21573;-55
2021/01/10 08:16:24;;;;;;;45.80;24.65;;;;;;;1.64;83.74;100229.31;1747142;79;21429;-57
2021/01/10 08:18:52;;;;;;;46.98;25.70;;;;;;;1.66;83.75;100224.89;1748079;80;21050;-62
2021/01/10 08:21:21;;;;;;;46.08;24.40;;;;;;;1.66;83.48;100219.13;1719827;81;21141;-52
2021/01/10 08:23:55;;;;;;;50.50;25.48;;;;;;;1.69;83.37;100232.83;1692541;81;21105;-52
2021/01/10 08:26:23;;;;;;;43.70;24.25;;;;;;;1.70;82.88;100227.94;1750411;80;21575;-48
2021/01/10 08:28:55;;;;;;;40.03;22.62;;;;;;;1.73;82.85;100229.26;1747288;80;22292;-55
2021/01/10 08:31:32;;;;;;;43.80;24.12;;;;;;;1.76;82.47;100227.92;1778519;77;22840;-54
2021/01/10 08:34:12;;;;;;;46.02;23.30;;;;;;;1.72;82.44;100235.48;1691380;82;21046;-57
2021/01/10 08:36:42;;;;;;;48.50;24.95;;;;;;;1.71;82.56;100232.39;1707667;81;21415;-59
2021/01/10 08:39:10;;;;;;;43.17;22.55;;;;;;;1.71;82.66;100239.91;1666750;81;21053;-57
2021/01/10 08:41:43;;;;;;;46.68;25.27;;;;;;;1.69;82.79;100239.47;1757752;79;21069;-54
2021/01/10 08:44:18;;;;;;;43.87;24.35;;;;;;;1.70;82.89;100229.27;1756553;79;20974;-58
2021/01/10 08:46:49;;;;;;;42.60;24.02;;;;;;;1.71;83.01;100239.03;1755262;79;21455;-61
2021/01/10 08:49:25;;;;;;;44.83;24.43;;;;;;;1.76;83.01;100238.56;1750852;80;22113;-61
2021/01/10 08:51:53;;;;;;;46.68;24.12;;;;;;;1.77;82.73;100237.66;1763179;79;21029;-61
2021/01/10 08:54:23;;;;;;;41.30;23.87;;;;;;;1.76;82.67;100234.57;1754143;79;21022;-58
2021/01/10 08:56:54;;;;;;;36.68;21.07;;;;;;;1.75;82.76;100236.31;1753885;79;21156;-51
2021/01/10 08:59:37;;;;;;;42.93;23.95;;;;;;;1.81;82.82;100227.00;1813446;76;22856;-50
2021/01/10 09:02:08;;;;;;;45.05;24.72;;;;;;;1.78;82.71;100230.11;1759253;79;21580;-52
2021/01/10 09:04:41;;;;;;;41.77;23.12;;;;;;;1.81;82.60;100236.72;1758641;78;21597;-49
2021/01/10 09:07:19;;;;;;;46.48;25.52;;;;;;;1.80;82.20;100225.66;1755803;79;21307;-49
2021/01/10 09:09:57;;;;;;;40.88;25.10;;;;;;;1.82;82.27;100230.53;1748681;79;21016;-50
2021/01/10 09:12:43;;;;;;;42.35;22.93;;;;;;;1.83;82.15;100229.19;1760250;79;21060;-54
2021/01/10 09:15:22;;;;;;;44.90;25.55;;;;;;;1.84;81.89;100225.62;1758649;79;20997;-53
2021/01/10 09:18:05;;;;;;;46.65;24.37;;;;;;;1.85;81.83;100226.50;1760864;79;22334;-54
2021/01/10 09:20:48;;;;;;;44.75;23.92;;;;;;;1.85;81.62;100226.50;1734362;79;21057;-57
2021/01/10 09:23:16;;;;;;;40.73;22.60;;;;;;;1.84;81.52;100222.09;1764691;78;20997;-51
2021/01/10 09:25:44;;;;;;;40.85;22.67;;;;;;;1.87;81.40;100220.75;1762825;78;21120;-51
2021/01/10 09:28:17;;;;;;;42.20;22.27;;;;;;;1.89;80.85;100217.62;1758590;79;20997;-52
2021/01/10 09:30:54;;;;;;;42.60;23.47;;;;;;;1.91;80.71;100222.47;1763212;79;21419;-53
2021/01/10 09:33:29;;;;;;;42.08;23.83;;;;;;;1.93;80.80;100223.81;1763390;78;20989;-52
2021/01/10 09:36:00;;;;;;;44.13;24.27;;;;;;;1.94;80.57;100220.25;1761555;79;21580;-50
2021/01/10 09:38:29;;;;;;;42.53;24.80;;;;;;;1.94;80.36;100225.12;1763539;79;21092;-49
2021/01/10 09:41:14;;;;;;;41.95;24.52;;;;;;;1.93;80.43;100221.14;1761946;78;21120;-50
2021/01/10 09:46:37;;;;;;;39.67;21.55;;;;;;;2.04;80.51;100220.16;1815849;75;22895;-50
2021/01/10 09:49:07;;;;;;;41.33;24.00;;;;;;;2.00;80.24;100215.75;1787064;77;20973;-48
2021/01/10 09:51:39;;;;;;;;;;;;;;;2.00;80.07;100217.53;1791834;77;21273;-51
2021/01/10 09:54:19;;;;;;;37.85;21.33;;;;;;;1.99;79.90;100225.97;1789513;77;20186;-51
2021/01/10 09:56:55;;;;;;;43.33;23.25;;;;;;;1.98;79.73;100225.53;1789931;77;20989;-50
2021/01/10 09:59:39;;;;;;;43.30;24.63;;;;;;;1.97;79.76;100221.12;1788634;77;21069;-50
2021/01/10 10:02:24;;;;;;;40.55;23.18;;;;;;;1.99;79.97;100220.64;1788190;77;20970;-50
2021/01/10 10:04:54;;;;;;;36.73;22.52;;;;;;;2.03;79.66;100223.72;1784535;77;21322;-49
2021/01/10 10:07:34;;;;;;;39.75;23.07;;;;;;;2.05;78.96;100223.25;1785683;77;21037;-51
2021/01/10 10:10:25;;;;;;;38.70;19.95;;;;;;;2.07;78.75;100224.11;1787237;77;21021;-50
2021/01/10 10:13:00;;;;;;;39.78;21.50;;;;;;;2.09;78.55;100223.67;1788056;77;21089;-50
2021/01/10 10:15:42;;;;;;;37.38;20.00;;;;;;;2.08;78.25;100221.91;1788067;77;20993;-53
2021/01/10 10:18:26;;;;;;;35.98;20.40;;;;;;;2.07;77.85;100224.11;1790018;77;22243;-50
2021/01/10 10:20:54;;;;;;;35.90;18.70;;;;;;;2.03;77.09;100218.41;1760868;80;21542;-50
2021/01/10 10:23:22;;;;;;;33.73;19.67;;;;;;;2.03;77.19;100217.08;1762593;78;21034;-46
2021/01/10 10:25:51;;;;;;;36.93;21.75;;;;;;;2.04;77.29;100217.50;1755295;78;21208;-46
2021/01/10 10:28:22;;;;;;;40.45;21.57;;;;;;;2.05;77.37;100216.59;1756788;78;21540;-47
2021/01/10 10:30:51;;;;;;;41.95;21.93;;;;;;;2.07;77.44;100216.58;1752103;79;21827;-48
2021/01/10 10:33:20;;;;;;;39.80;21.62;;;;;;;2.07;77.63;100218.79;1755046;78;21148;-47
2021/01/10 10:35:49;;;;;;;40.95;23.25;;;;;;;2.10;77.43;100218.78;1753111;78;20999;-48
2021/01/10 10:38:17;;;;;;;37.83;20.77;;;;;;;2.15;77.55;100216.53;1752542;80;21408;-47
2021/01/10 10:40:44;;;;;;;36.60;20.60;;;;;;;2.18;77.49;100219.15;1756996;78;20982;-48
2021/01/10 10:43:12;;;;;;;37.45;20.48;;;;;;;2.21;76.96;100221.80;1749532;78;21444;-48
2021/01/10 10:45:41;;;;;;;34.45;19.35;;;;;;;2.21;76.45;100225.34;1765955;79;21045;-51
2021/01/10 10:48:09;;;;;;;35.83;18.77;;;;;;;2.21;76.07;100220.47;1752700;78;21237;-50
2021/01/10 10:50:38;;;;;;;36.80;20.35;;;;;;;2.18;76.08;100219.15;1752381;78;21199;-50
2021/01/10 10:53:08;;;;;;;34.63;19.82;;;;;;;2.20;75.98;100214.72;1745777;79;21139;-51
2021/01/10 10:55:36;;;;;;;32.53;18.50;;;;;;;2.21;75.75;100219.13;1744571;79;21307;-49
2021/01/10 10:58:07;;;;;;;33.78;18.23;;;;;;;2.22;75.35;100223.55;1742767;79;21746;-49
2021/01/10 11:00:37;;;;;;;37.63;19.87;;;;;;;2.25;75.52;100215.56;1745726;79;20993;-47
2021/01/10 11:03:07;;;;;;;34.05;18.62;;;;;;;2.28;75.59;100215.52;1743568;79;21027;-50
2021/01/10 11:05:35;;;;;;;32.53;18.02;;;;;;;2.29;75.26;100212.86;1748917;79;20989;-53
2021/01/10 11:08:04;;;;;;;33.65;17.75;;;;;;;2.28;75.07;100215.52;1744611;79;22281;-47
2021/01/10 11:10:32;;;;;;;32.78;19.17;;;;;;;2.24;75.08;100225.33;1744766;79;21199;-46
2021/01/10 11:13:00;;;;;;;37.85;19.07;;;;;;;2.22;74.86;100215.57;1746401;79;21072;-45
2021/01/10 11:15:29;;;;;;;35.05;19.23;;;;;;;2.20;75.11;100212.05;1746117;79;21049;-46
2021/01/10 11:17:57;;;;;;;31.82;17.57;;;;;;;2.19;75.13;100218.28;1749769;79;21648;-46
2021/01/10 11:20:27;;;;;;;35.20;19.75;;;;;;;2.17;75.35;100214.73;1747638;79;21463;-45
2021/01/10 11:22:57;;;;;;;;;;;;;;;2.17;75.55;100217.39;1746341;79;21123;-49
2021/01/10 11:25:24;;;;;;;34.35;17.37;;;;;;;2.17;75.46;100217.39;1746662;79;20283;-47
2021/01/10 11:27:53;;;;;;;30.27;16.45;;;;;;;2.17;75.52;100220.05;1744313;79;21143;-47
2021/01/10 11:30:21;;;;;;;30.82;17.70;;;;;;;2.14;75.37;100227.63;1744306;79;21001;-46
2021/01/10 11:32:50;;;;;;;32.42;18.62;;;;;;;2.13;75.45;100224.53;1750996;79;21196;-46
2021/01/10 11:35:18;;;;;;;33.35;17.95;;;;;;;2.16;75.48;100219.62;1743755;79;21171;-47
2021/01/10 11:37:47;;;;;;;29.70;17.23;;;;;;;2.20;75.49;100217.38;1745436;79;21152;-45
2021/01/10 11:40:15;;;;;;;35.30;20.37;;;;;;;2.23;75.55;100225.31;1748199;79;21191;-46
2021/01/10 11:42:44;;;;;;;34.92;20.20;;;;;;;2.20;75.42;100224.91;1745106;79;21691;-46
2021/01/10 11:45:13;;;;;;;28.12;16.55;;;;;;;2.17;75.47;100228.91;1720527;79;21488;-45
2021/01/10 11:47:41;;;;;;;33.25;18.85;;;;;;;2.16;74.80;100228.93;1743988;79;21088;-47
2021/01/10 11:50:10;;;;;;;32.28;18.48;;;;;;;2.19;75.05;100221.81;1744883;80;21183;-46